Fabian Garcia SC Data

Date Time Air Temperature Relative Humidity Dewpoint Windchill Heat Index Wind Speed Wind Dir. Rain Solar Radiation Soil Temperature
2m 2m 3m 3m 10cm
US/Mountain F % F F F MPH deg in MJ/m^2 F
max avg avg
2021-09-15 00:05:00 72.8 42.5 48.7 72.8 72.8 0.0 1.7 0.8 157.7 132.8 0.00 0.0000061 76.7
2021-09-15 00:10:00 72.5 42.5 48.4 72.5 72.5 0.0 0.0 0.0 126.7 0.0 0.00 0.0000101 76.6
2021-09-15 00:15:00 71.9 44.7 49.3 71.9 71.9 1.7 1.9 1.4 134.2 164.8 0.00 0.0000141 76.6
2021-09-15 00:20:00 71.9 45.5 49.7 71.9 71.9 0.0 2.1 1.1 182.4 159.6 0.00 0.0000081 76.5
2021-09-15 00:25:00 71.3 45.4 49.1 71.3 71.3 0.0 1.2 0.3 135.4 152.0 0.00 0.0000141 76.4
2021-09-15 00:30:00 71.6 45.6 49.5 71.6 71.6 2.2 2.4 0.8 241.3 242.7 0.00 0.0000182 76.4
2021-09-15 00:35:00 71.2 46.7 49.8 71.2 71.2 3.1 3.1 2.4 221.2 220.6 0.00 0.0000283 76.3
2021-09-15 00:40:00 70.8 47.9 50.1 70.8 70.8 0.0 3.5 1.8 236.2 235.5 0.00 0.0000182 76.3
2021-09-15 00:45:00 70.2 48.2 49.7 70.2 70.2 2.6 3.0 1.6 203.1 242.7 0.00 0.0000141 76.2
2021-09-15 00:50:00 70.3 48.2 49.8 70.3 70.3 2.1 2.6 1.0 206.1 207.9 0.00 0.0000141 76.2
2021-09-15 00:55:00 70.3 47.9 49.6 70.3 70.3 0.0 2.1 0.5 208.1 186.8 0.00 0.0000162 76.1
2021-09-15 01:00:00 70.1 49.2 50.1 70.1 70.1 1.7 1.7 0.2 164.5 156.9 0.00 0.0000081 76.0
2021-09-15 01:05:00 70.2 51.4 51.4 70.2 70.2 1.2 2.4 1.6 160.6 155.4 0.00 0.0000202 76.0
2021-09-15 01:10:00 69.3 52.2 51.0 69.3 69.3 2.8 4.4 2.7 245.5 223.1 0.00 0.0000081 75.9
2021-09-15 01:15:00 69.3 50.5 50.1 69.3 69.3 4.7 4.7 2.7 296.1 262.0 0.00 0.0000020 75.9
2021-09-15 01:20:00 70.2 48.0 49.6 70.2 70.2 2.1 5.8 2.7 302.4 279.1 0.00 0.0000040 75.8
2021-09-15 01:25:00 70.5 46.0 48.8 70.5 70.5 0.0 2.6 1.2 246.1 255.7 0.00 0.0000000 75.8
2021-09-15 01:30:00 72.8 41.5 48.0 72.8 72.8 1.5 6.9 3.5 293.2 330.6 0.00 0.0000040 75.7
2021-09-15 01:35:00 73.0 38.4 46.2 73.0 73.0 1.9 3.3 2.3 12.5 354.6 0.00 0.0000020 75.7
2021-09-15 01:40:00 73.9 36.3 45.5 73.9 73.9 2.8 2.8 1.7 82.7 56.3 0.00 0.0000081 75.7
2021-09-15 01:45:00 74.2 37.0 46.3 74.2 74.2 3.0 3.7 2.8 139.5 130.2 0.00 0.0000000 75.6
2021-09-15 01:50:00 74.0 38.2 46.9 74.0 74.0 1.0 3.0 1.7 343.5 162.6 0.00 0.0000121 75.6
2021-09-15 01:55:00 73.9 36.6 45.7 73.9 73.9 1.9 2.6 1.8 20.3 66.9 0.00 0.0000040 75.5
2021-09-15 02:00:00 74.6 36.1 46.0 74.6 74.6 4.2 4.6 3.1 18.0 25.2 0.00 0.0000081 75.5
2021-09-15 02:05:00 74.8 34.0 44.5 74.8 74.8 3.8 5.3 3.1 339.0 17.2 0.00 0.0000101 75.4
2021-09-15 02:10:00 75.0 33.3 44.2 75.0 75.0 2.4 4.9 3.2 2.7 7.0 0.00 0.0000020 75.3
2021-09-15 02:15:00 74.9 35.2 45.6 74.9 74.9 3.0 4.2 3.1 264.0 326.5 0.00 0.0000020 75.3
2021-09-15 02:20:00 73.1 36.7 45.1 73.1 73.1 1.5 3.1 2.3 240.8 247.8 0.00 0.0000020 75.3
2021-09-15 02:25:00 72.4 38.0 45.3 72.4 72.4 1.7 1.9 0.8 282.4 268.6 0.00 0.0000040 75.2
2021-09-15 02:30:00 72.2 36.8 44.4 72.2 72.2 1.5 2.2 1.7 300.7 285.5 0.00 0.0000061 75.2
2021-09-15 02:35:00 73.3 32.3 41.9 73.3 73.3 2.8 2.8 2.1 330.9 348.4 0.00 0.0000040 75.1
2021-09-15 02:40:00 73.3 33.3 42.7 73.3 73.3 1.5 4.0 2.5 251.1 277.2 0.00 0.0000101 75.1
2021-09-15 02:45:00 73.1 35.0 43.8 73.1 73.1 2.2 2.2 1.8 268.3 267.9 0.00 0.0000020 75.0
2021-09-15 02:50:00 72.4 36.8 44.6 72.4 72.4 3.0 3.7 2.7 250.0 262.8 0.00 0.0000141 75.0
2021-09-15 02:55:00 71.9 38.4 45.2 71.9 71.9 2.1 3.3 2.6 262.0 236.4 0.00 0.0000141 74.9
2021-09-15 03:00:00 70.6 41.2 45.9 70.6 70.6 3.7 3.7 3.0 257.4 256.4 0.00 0.0000162 74.9
2021-09-15 03:05:00 69.8 43.3 46.5 69.8 69.8 3.1 4.6 3.6 271.1 261.7 0.00 0.0000162 74.9
2021-09-15 03:10:00 69.4 44.3 46.7 69.4 69.4 3.7 4.6 3.4 241.6 254.8 0.00 0.0000182 74.8
2021-09-15 03:15:00 68.8 44.7 46.4 68.8 68.8 3.1 4.4 3.6 256.1 254.4 0.00 0.0000263 74.8
2021-09-15 03:20:00 69.0 42.8 45.4 69.0 69.0 3.0 3.1 2.8 256.0 258.7 0.00 0.0000263 74.8
2021-09-15 03:25:00 68.8 44.7 46.4 68.8 68.8 3.3 3.7 3.3 249.7 254.0 0.00 0.0000323 74.7
2021-09-15 03:30:00 68.3 46.7 47.1 68.3 68.3 2.8 3.8 3.3 252.2 250.6 0.00 0.0000101 74.6
2021-09-15 03:35:00 67.7 47.8 47.2 67.7 67.7 2.6 3.1 2.6 264.7 260.7 0.00 0.0000040 74.6
2021-09-15 03:40:00 67.9 46.9 46.9 67.9 67.9 2.6 3.1 2.7 278.5 255.6 0.00 0.0000101 74.5
2021-09-15 03:45:00 68.7 39.2 42.9 68.7 68.7 4.0 4.0 2.7 260.9 258.2 0.00 0.0000121 74.5
2021-09-15 03:50:00 69.4 43.9 46.5 69.4 69.4 4.0 4.2 3.4 257.4 249.2 0.00 0.0000040 74.4
2021-09-15 03:55:00 69.6 41.1 44.9 69.6 69.6 4.4 4.9 4.2 238.7 246.2 0.00 0.0000141 74.4
2021-09-15 04:00:00 69.9 41.5 45.4 69.9 69.9 3.3 4.6 3.7 231.5 247.8 0.00 0.0000020 74.4
2021-09-15 04:05:00 69.6 41.5 45.1 69.6 69.6 3.0 3.8 3.4 241.9 244.9 0.00 0.0000020 74.3
2021-09-15 04:10:00 69.2 42.7 45.6 69.2 69.2 2.4 3.3 2.3 252.1 246.5 0.00 0.0000000 74.3
2021-09-15 04:15:00 69.5 40.6 44.5 69.5 69.5 3.8 4.7 3.9 251.3 257.9 0.00 0.0000000 74.2
2021-09-15 04:20:00 69.8 39.9 44.3 69.8 69.8 4.4 4.7 3.8 247.6 258.9 0.00 0.0000000 74.2
2021-09-15 04:25:00 70.2 40.5 45.1 70.2 70.2 4.4 5.6 4.6 242.2 256.1 0.00 0.0000000 74.2
2021-09-15 04:30:00 69.5 41.4 45.1 69.5 69.5 3.3 4.7 4.1 255.3 255.3 0.00 0.0000000 74.1
2021-09-15 04:35:00 69.2 42.2 45.3 69.2 69.2 3.0 4.7 3.6 237.1 251.5 0.00 0.0000000 74.1
2021-09-15 04:40:00 69.0 43.2 45.7 69.0 69.0 3.3 4.0 3.3 245.1 248.5 0.00 0.0000000 74.0
2021-09-15 04:45:00 69.1 42.6 45.4 69.1 69.1 3.7 4.0 3.5 247.6 250.7 0.00 0.0000000 74.0
2021-09-15 04:50:00 69.0 41.6 44.7 69.0 69.0 2.8 3.8 3.3 229.7 248.4 0.00 0.0000000 73.9
2021-09-15 04:55:00 69.4 40.3 44.2 69.4 69.4 2.6 3.1 2.6 251.5 256.3 0.00 0.0000000 73.9
2021-09-15 05:00:00 70.3 39.4 44.4 70.3 70.3 1.9 3.0 1.8 285.0 268.6 0.00 0.0000000 73.8
2021-09-15 05:05:00 70.8 37.7 43.7 70.8 70.8 1.7 3.8 1.6 333.3 289.1 0.00 0.0000000 73.8
2021-09-15 05:10:00 71.3 37.3 43.8 71.3 71.3 3.0 3.1 2.1 274.6 270.4 0.00 0.0000000 73.7
2021-09-15 05:15:00 71.2 37.9 44.2 71.2 71.2 1.2 3.3 2.1 265.5 289.8 0.00 0.0000000 73.7
2021-09-15 05:20:00 71.5 36.7 43.7 71.5 71.5 3.7 4.6 2.2 334.9 295.0 0.00 0.0000000 73.7
2021-09-15 05:25:00 73.5 33.8 43.3 73.5 73.5 5.1 8.1 5.7 324.6 336.4 0.00 0.0000000 73.6
2021-09-15 05:30:00 74.3 32.3 42.8 74.3 74.3 5.5 8.0 5.9 342.2 353.5 0.00 0.0000000 73.6
2021-09-15 05:35:00 74.3 32.6 43.0 74.3 74.3 3.8 5.1 3.4 343.3 5.1 0.00 0.0000000 73.5
2021-09-15 05:40:00 74.5 32.3 43.0 74.5 74.5 3.0 6.0 4.4 23.8 9.9 0.00 0.0000020 73.5
2021-09-15 05:45:00 74.0 32.9 43.0 74.0 74.0 2.4 4.0 2.8 30.4 16.2 0.00 0.0000000 73.5
2021-09-15 05:50:00 73.7 32.8 42.6 73.7 73.7 3.1 6.0 3.7 24.0 14.1 0.00 0.0000000 73.4
2021-09-15 05:55:00 73.7 32.9 42.7 73.7 73.7 5.5 7.2 4.7 335.3 3.8 0.00 0.0000020 73.4
2021-09-15 06:00:00 73.1 33.7 42.8 73.1 73.1 5.3 8.8 6.6 0.3 352.0 0.00 0.0000000 73.4
2021-09-15 06:05:00 73.0 33.8 42.8 73.0 73.0 4.2 8.5 5.7 2.9 1.5 0.00 0.0000040 73.3
2021-09-15 06:10:00 72.4 33.7 42.2 72.4 72.4 7.2 9.0 6.5 337.9 353.5 0.00 0.0000040 73.3
2021-09-15 06:15:00 72.2 33.5 41.8 72.2 72.2 7.4 9.4 6.7 334.4 333.4 0.00 0.0000000 73.2
2021-09-15 06:20:00 72.2 33.5 41.9 72.2 72.2 4.6 7.8 5.3 302.6 337.1 0.00 0.0000061 73.2
2021-09-15 06:25:00 72.1 34.4 42.4 72.1 72.1 3.0 8.8 4.0 335.4 329.0 0.00 0.0000081 73.2
2021-09-15 06:30:00 71.4 34.3 41.8 71.4 71.4 5.6 7.1 4.2 337.4 331.4 0.00 0.0000505 73.1
2021-09-15 06:35:00 71.7 33.2 41.3 71.7 71.7 8.3 8.3 6.0 336.0 341.2 0.00 0.0000606 73.1
2021-09-15 06:40:00 71.7 33.6 41.5 71.7 71.7 3.8 6.2 4.7 337.1 344.2 0.00 0.0001919 73.1
2021-09-15 06:45:00 71.9 32.7 41.0 71.9 71.9 2.4 5.8 3.6 12.5 342.7 0.00 0.0003919 73.0
2021-09-15 06:50:00 71.1 34.6 41.8 71.1 71.1 1.9 2.6 1.4 224.7 270.3 0.00 0.0006646 73.0
2021-09-15 06:55:00 70.4 33.4 40.2 70.4 70.4 4.6 4.7 2.1 335.5 246.4 0.00 0.0009576 72.9
2021-09-15 07:00:00 71.7 31.7 40.0 71.7 71.7 8.1 10.1 4.8 318.6 324.3 0.00 0.0013737 72.9
2021-09-15 07:05:00 71.9 31.7 40.2 71.9 71.9 10.3 11.9 6.3 342.4 327.8 0.00 0.0023737 72.9
2021-09-15 07:10:00 71.4 33.0 40.8 71.4 71.4 6.2 12.6 9.4 334.5 342.6 0.00 0.0039233 72.9
2021-09-15 07:15:00 71.3 32.8 40.5 71.3 71.3 7.4 9.9 7.9 15.5 346.2 0.00 0.0051697 72.8
2021-09-15 07:20:00 71.0 34.2 41.4 71.0 71.0 11.3 11.3 7.0 329.6 343.3 0.00 0.0065071 72.8
2021-09-15 07:25:00 70.6 36.1 42.5 70.6 70.6 7.6 12.1 8.3 318.7 345.5 0.00 0.0080263 72.7
2021-09-15 07:30:00 70.6 37.2 43.3 70.6 70.6 6.9 11.5 7.4 291.6 340.2 0.00 0.0095192 72.7
2021-09-15 07:35:00 70.5 38.1 43.7 70.5 70.5 7.1 11.2 8.4 336.7 338.6 0.00 0.0117052 72.7
2021-09-15 07:40:00 70.4 38.4 43.9 70.4 70.4 8.0 13.0 9.6 327.2 343.7 0.00 0.0145270 72.7
2021-09-15 07:45:00 70.5 39.0 44.3 70.5 70.5 7.6 12.2 9.8 337.9 338.7 0.00 0.0177869 72.6
2021-09-15 07:50:00 70.6 39.3 44.7 70.6 70.6 6.5 10.6 7.8 319.8 335.5 0.00 0.0209926 72.6
2021-09-15 07:55:00 70.5 39.3 44.5 70.5 70.5 5.5 10.6 7.4 326.8 343.0 0.00 0.0240805 72.6
2021-09-15 08:00:00 70.6 38.7 44.3 70.6 70.6 5.1 7.4 5.3 338.0 344.4 0.00 0.0281117 72.6
2021-09-15 08:05:00 71.1 39.0 44.9 71.1 71.1 3.1 6.7 4.3 333.0 1.6 0.00 0.0326426 72.6
2021-09-15 08:10:00 71.3 39.8 45.6 71.3 71.3 3.0 6.3 4.2 273.8 324.1 0.00 0.0370477 72.5
2021-09-15 08:15:00 71.4 40.5 46.1 71.4 71.4 6.2 9.6 6.6 343.2 336.3 0.00 0.0439773 72.5
2021-09-15 08:20:00 72.1 39.0 45.7 72.1 72.1 6.9 9.4 6.8 12.0 340.0 0.00 0.0600398 72.5
2021-09-15 08:25:00 73.0 34.8 43.6 73.0 73.0 3.8 8.0 5.5 20.1 359.7 0.00 0.1020089 72.5
2021-09-15 08:30:00 74.4 37.8 46.9 74.4 74.4 6.3 6.3 3.8 335.2 10.8 0.00 0.1115735 72.5
2021-09-15 08:35:00 74.5 37.2 46.6 74.5 74.5 4.9 7.1 4.8 34.1 8.7 0.00 0.1296149 72.5
2021-09-15 08:40:00 74.9 33.0 43.8 74.9 74.9 2.6 6.0 4.1 73.4 31.9 0.00 0.1255047 72.5
2021-09-15 08:45:00 74.7 34.7 45.0 74.7 74.7 2.4 3.5 2.1 192.6 132.6 0.00 0.0856941 72.5
2021-09-15 08:50:00 75.7 32.4 44.1 75.7 75.7 3.7 4.2 1.9 119.4 138.0 0.00 0.1029341 72.6
2021-09-15 08:55:00 75.0 33.1 44.1 75.0 75.0 3.0 4.2 2.7 60.4 89.5 0.00 0.0694898 72.6
2021-09-15 09:00:00 74.3 37.6 46.8 74.3 74.3 0.0 3.1 2.0 131.6 81.1 0.00 0.0594838 72.6
2021-09-15 09:05:00 74.9 37.3 47.1 74.9 74.9 0.0 3.0 1.2 332.5 43.4 0.00 0.0568988 72.6
2021-09-15 09:10:00 74.6 37.6 47.1 74.6 74.6 1.7 2.8 1.4 234.2 348.2 0.00 0.0594204 72.6
2021-09-15 09:15:00 75.0 42.1 50.4 75.0 75.0 4.4 6.2 3.0 1.3 332.7 0.00 0.0603509 72.7
2021-09-15 09:20:00 75.5 42.6 51.2 75.5 75.5 3.8 7.2 5.1 28.9 343.3 0.00 0.1150361 72.7
2021-09-15 09:25:00 75.5 41.4 50.4 75.5 75.5 4.4 5.3 4.3 24.4 344.5 0.00 0.0778747 72.8
2021-09-15 09:30:00 75.5 41.8 50.7 75.5 75.5 4.7 7.2 4.9 333.2 349.5 0.00 0.1155543 72.8
2021-09-15 09:35:00 76.1 40.1 50.1 76.1 76.1 3.3 7.6 3.8 286.9 350.0 0.00 0.1610166 72.9
2021-09-15 09:40:00 76.7 38.3 49.4 76.7 76.7 4.6 6.5 3.9 337.6 339.4 0.00 0.1533656 72.9
2021-09-15 09:45:00 77.5 40.6 51.7 77.5 77.5 1.5 4.0 1.2 336.0 7.0 0.00 0.1569611 72.9
2021-09-15 09:50:00 78.5 35.5 48.9 78.5 78.5 2.4 6.0 3.5 44.2 29.3 0.00 0.1710820 73.0
2021-09-15 09:55:00 78.9 35.2 49.1 78.9 78.9 2.1 4.4 2.6 293.4 2.5 0.00 0.1696749 73.0
2021-09-15 10:00:00 78.8 34.3 48.3 78.8 78.8 1.3 5.3 3.0 123.5 2.4 0.00 0.1729471 73.1
2021-09-15 10:05:00 79.4 34.5 49.0 79.4 79.4 3.0 5.1 3.1 341.5 342.6 0.00 0.1766235 73.1
2021-09-15 10:10:00 79.1 34.1 48.3 79.1 79.1 5.1 5.1 3.5 31.1 16.4 0.00 0.1324847 73.1
2021-09-15 10:15:00 79.5 33.3 48.1 79.5 79.5 5.3 6.2 4.9 338.5 357.2 0.00 0.1840709 73.2
2021-09-15 10:20:00 80.3 32.8 48.5 80.3 80.3 3.1 5.3 3.0 0.5 341.0 0.00 0.1907358 73.3
2021-09-15 10:25:00 81.5 32.9 49.6 81.5 81.5 4.9 4.9 2.5 16.4 340.5 0.00 0.1950003 73.4
2021-09-15 10:30:00 81.4 32.5 49.1 81.4 81.4 2.2 4.9 3.5 5.9 356.5 0.00 0.1991487 73.5
2021-09-15 10:35:00 81.8 32.5 49.5 81.8 81.8 3.1 5.6 2.7 292.0 7.9 0.00 0.2034020 73.5
2021-09-15 10:40:00 82.5 33.7 51.0 82.5 82.5 1.5 4.2 2.4 159.1 243.7 0.00 0.2076551 73.6
2021-09-15 10:45:00 82.3 32.0 49.5 82.3 82.3 4.4 6.0 3.3 10.5 203.0 0.00 0.1911948 73.7
2021-09-15 10:50:00 82.2 35.6 52.3 82.2 82.2 1.7 7.8 3.4 96.6 43.2 0.00 0.1734244 73.8
2021-09-15 10:55:00 83.2 30.1 48.6 83.2 83.2 2.1 3.3 1.6 61.7 182.6 0.00 0.2263632 73.9
2021-09-15 11:00:00 83.7 29.9 48.9 83.7 83.7 2.1 3.8 2.5 181.1 263.2 0.00 0.2380625 74.0
2021-09-15 11:05:00 83.4 27.4 46.3 83.4 83.4 6.0 6.0 4.1 196.6 228.6 0.00 0.2060062 74.1
2021-09-15 11:10:00 83.0 29.5 47.9 83.0 83.0 3.7 5.8 4.1 114.0 168.9 0.00 0.1078949 74.2
2021-09-15 11:15:00 83.5 28.8 47.7 83.5 83.5 1.3 4.4 2.3 28.5 145.3 0.00 0.1663056 74.3
2021-09-15 11:20:00 84.3 30.7 50.1 84.3 84.3 4.9 6.2 3.8 226.7 235.9 0.00 0.2518975 74.4
2021-09-15 11:25:00 85.2 29.8 50.1 85.2 85.2 5.8 6.2 3.9 232.3 179.9 0.00 0.2523496 74.5
2021-09-15 11:30:00 84.3 28.6 48.2 84.3 84.3 4.7 7.6 5.8 156.9 206.8 0.00 0.2405765 74.6
2021-09-15 11:35:00 84.3 28.9 48.5 84.3 84.3 5.3 7.1 4.4 208.9 181.4 0.00 0.1608661 74.8
2021-09-15 11:40:00 84.3 28.5 48.1 84.3 84.3 4.0 6.2 4.5 233.9 208.3 0.00 0.1611555 74.8
2021-09-15 11:45:00 84.3 30.3 49.8 84.3 84.3 4.4 5.3 4.0 269.1 241.8 0.00 0.2265565 75.0
2021-09-15 11:50:00 85.4 26.9 47.5 85.4 85.4 1.7 5.3 2.6 35.1 229.7 0.00 0.2531938 75.1
2021-09-15 11:55:00 86.6 27.5 49.1 86.6 86.6 5.6 8.7 4.6 183.1 195.7 0.00 0.2444951 75.2
2021-09-15 12:00:00 85.2 28.3 48.7 85.2 85.2 3.3 6.7 4.4 184.7 186.4 0.00 0.2473028 75.3
2021-09-15 12:05:00 85.6 28.7 49.5 85.6 85.6 2.4 6.3 4.9 135.0 133.1 0.00 0.2462029 75.4
2021-09-15 12:10:00 85.9 26.1 47.2 85.9 85.9 6.9 9.7 4.8 159.6 150.6 0.00 0.2483676 75.5
2021-09-15 12:15:00 86.1 27.8 49.0 86.1 86.1 3.8 8.1 5.0 112.8 180.8 0.00 0.2498088 75.7
2021-09-15 12:20:00 87.4 25.1 47.3 87.4 87.4 2.6 6.2 4.3 79.9 128.1 0.00 0.2509413 75.8
2021-09-15 12:25:00 87.7 25.9 48.5 87.7 87.7 4.7 7.4 4.6 193.1 135.6 0.00 0.2526982 75.9
2021-09-15 12:30:00 87.1 27.3 49.4 87.1 87.1 2.6 6.7 4.9 65.7 141.6 0.00 0.2531140 76.1
2021-09-15 12:35:00 87.1 26.5 48.6 87.1 87.1 2.8 8.1 4.1 87.3 143.6 0.00 0.2537348 76.2
2021-09-15 12:40:00 88.3 27.5 50.6 88.3 88.3 5.1 8.1 4.8 201.3 138.1 0.00 0.2552928 76.3
2021-09-15 12:45:00 87.6 26.3 48.8 87.6 87.6 3.3 8.5 5.3 137.3 172.0 0.00 0.2564538 76.4
2021-09-15 12:50:00 87.7 29.5 52.0 87.7 87.7 4.2 7.6 4.9 248.4 180.2 0.00 0.2567264 76.6
2021-09-15 12:55:00 87.3 32.3 54.1 87.3 87.3 3.5 8.5 5.4 179.7 212.0 0.00 0.2566336 76.7
2021-09-15 13:00:00 86.9 30.2 51.9 86.9 86.9 6.5 9.2 6.8 210.5 221.9 0.00 0.2557999 76.8
2021-09-15 13:05:00 87.4 30.0 52.2 87.4 87.4 6.2 8.3 5.9 251.5 214.4 0.00 0.2558544 76.8
2021-09-15 13:10:00 88.4 27.8 51.0 88.4 88.4 7.6 7.6 4.7 155.6 192.7 0.00 0.2551014 76.9
2021-09-15 13:15:00 87.9 29.1 51.8 87.9 87.9 9.0 9.2 5.9 221.6 180.4 0.00 0.2546400 76.9
2021-09-15 13:20:00 88.0 28.8 51.5 88.0 88.0 7.6 8.1 6.0 193.3 179.2 0.00 0.2541706 77.0
2021-09-15 13:25:00 87.8 28.4 51.0 87.8 87.8 5.6 9.4 7.1 239.7 212.1 0.00 0.2532808 77.0
2021-09-15 13:30:00 88.4 27.0 50.2 88.4 88.4 6.9 12.2 7.3 195.4 207.4 0.00 0.2528386 77.1
2021-09-15 13:35:00 88.4 25.6 48.7 88.4 88.4 9.0 9.2 7.1 204.2 202.4 0.00 0.2516644 77.1
2021-09-15 13:40:00 88.4 26.2 49.4 88.4 88.4 6.9 9.7 6.9 160.0 217.1 0.00 0.2510225 77.1
2021-09-15 13:45:00 89.6 26.2 50.4 89.6 89.6 8.0 10.6 6.6 226.9 189.8 0.00 0.2501925 77.2
2021-09-15 13:50:00 89.6 24.8 48.9 89.6 89.6 7.2 11.0 7.1 230.5 195.1 0.00 0.2491923 77.2
2021-09-15 13:55:00 88.9 24.6 48.1 88.9 88.9 8.7 11.3 8.2 197.9 205.2 0.00 0.2478046 77.3
2021-09-15 14:00:00 89.2 25.3 49.1 89.2 89.2 7.8 8.8 6.5 223.6 215.6 0.00 0.2447793 77.3
2021-09-15 14:05:00 89.2 25.7 49.5 89.2 89.2 9.0 10.6 7.7 184.6 203.9 0.00 0.2443784 77.5
2021-09-15 14:10:00 90.0 24.7 49.1 90.0 90.0 3.5 8.0 6.0 185.4 194.9 0.00 0.2429170 77.5
2021-09-15 14:15:00 89.5 28.5 52.6 89.5 89.5 5.6 11.2 6.9 223.3 219.1 0.00 0.2415107 77.6
2021-09-15 14:20:00 89.9 26.4 50.9 89.9 89.9 4.6 9.7 6.2 167.7 199.5 0.00 0.2394356 77.8
2021-09-15 14:25:00 90.2 25.6 50.2 90.2 90.2 7.8 9.0 6.6 248.2 203.7 0.00 0.2378062 77.8
2021-09-15 14:30:00 89.4 26.2 50.2 89.4 89.4 5.8 10.3 7.2 179.1 227.9 0.00 0.2350270 78.0
2021-09-15 14:35:00 89.6 25.5 49.7 89.6 89.6 8.3 10.3 8.0 228.7 209.9 0.00 0.2323581 78.1
2021-09-15 14:40:00 90.5 25.5 50.4 90.5 90.5 9.0 9.9 6.5 158.8 207.2 0.00 0.2298942 78.2
2021-09-15 14:45:00 90.1 26.1 50.7 90.1 90.1 7.4 11.0 8.4 209.2 224.5 0.00 0.2278634 78.3
2021-09-15 14:50:00 90.4 24.7 49.5 90.4 90.4 6.7 9.2 6.7 171.4 219.3 0.00 0.2245619 78.4
2021-09-15 14:55:00 90.9 24.4 49.6 90.9 90.9 5.3 9.7 6.0 180.3 205.1 0.00 0.2220205 78.6
2021-09-15 15:00:00 90.2 25.3 50.0 90.2 90.2 5.8 10.3 7.4 179.0 209.2 0.00 0.2202858 78.7
2021-09-15 15:05:00 90.8 25.0 50.2 90.8 90.8 5.6 8.1 5.2 209.0 194.3 0.00 0.2169991 78.8
2021-09-15 15:10:00 91.1 21.9 46.9 91.1 91.1 9.7 9.7 6.2 179.6 200.8 0.00 0.2140591 78.9
2021-09-15 15:15:00 91.0 23.3 48.4 91.0 91.0 6.3 8.7 5.7 226.1 195.5 0.00 0.2108346 79.0
2021-09-15 15:20:00 90.8 24.1 49.2 90.8 90.8 8.1 11.0 7.2 173.6 214.4 0.00 0.2075416 79.1
2021-09-15 15:25:00 90.7 23.7 48.7 90.7 90.7 7.1 9.6 6.7 186.7 199.3 0.00 0.2046503 79.2
2021-09-15 15:30:00 91.5 22.7 48.1 91.5 91.5 6.3 10.3 6.6 177.7 175.2 0.00 0.2013026 79.4
2021-09-15 15:35:00 91.5 25.0 50.7 91.5 91.5 7.2 9.9 5.8 215.8 182.5 0.00 0.1981388 79.5
2021-09-15 15:40:00 91.1 24.1 49.5 91.1 91.1 6.9 11.2 8.0 151.8 184.3 0.00 0.1940733 79.6
2021-09-15 15:45:00 91.8 24.7 50.6 91.8 91.8 4.7 9.2 5.4 229.5 187.6 0.00 0.1899227 79.7
2021-09-15 15:50:00 92.6 24.1 50.6 92.6 92.6 4.7 8.7 4.8 170.3 195.6 0.00 0.1856869 79.8
2021-09-15 15:55:00 92.2 25.7 52.1 92.2 92.2 6.2 8.8 6.2 205.5 208.3 0.00 0.1816109 79.9
2021-09-15 16:00:00 91.7 24.3 50.1 91.7 91.7 8.0 12.1 7.1 210.3 208.7 0.00 0.1779310 79.9
2021-09-15 16:05:00 92.2 23.6 49.8 92.2 92.2 5.3 8.7 5.2 227.6 174.0 0.00 0.1743950 80.0
2021-09-15 16:10:00 91.9 24.2 50.2 91.9 91.9 8.0 9.0 5.5 172.7 196.4 0.00 0.1699385 80.1
2021-09-15 16:15:00 91.2 25.2 50.7 91.2 91.2 6.7 9.7 7.5 195.4 202.7 0.00 0.1656132 80.2
2021-09-15 16:20:00 92.0 24.1 50.2 92.0 92.0 6.3 8.0 6.4 236.5 197.4 0.00 0.1611590 80.2
2021-09-15 16:25:00 91.3 26.4 52.1 91.3 91.3 4.9 8.8 6.8 251.1 226.1 0.00 0.1566342 80.3
2021-09-15 16:30:00 91.5 24.0 49.6 91.5 91.5 4.9 9.4 6.6 187.4 204.3 0.00 0.1522497 80.4
2021-09-15 16:35:00 92.0 24.1 50.1 92.0 92.0 6.7 9.0 5.9 199.5 186.3 0.00 0.1477070 80.4
2021-09-15 16:40:00 91.9 24.1 50.0 91.9 91.9 7.1 8.3 5.7 234.0 199.3 0.00 0.1433566 80.5
2021-09-15 16:45:00 91.7 23.7 49.4 91.7 91.7 6.0 8.1 6.1 202.6 194.5 0.00 0.1385889 80.6
2021-09-15 16:50:00 92.1 25.2 51.5 92.1 92.1 4.6 8.0 5.2 209.9 198.9 0.00 0.1336747 80.6
2021-09-15 16:55:00 91.9 23.4 49.2 91.9 91.9 6.9 8.3 5.5 209.3 183.6 0.00 0.1284574 80.7
2021-09-15 17:00:00 92.5 21.9 48.1 92.5 92.5 5.6 6.3 4.5 173.2 186.2 0.00 0.1230626 80.7
2021-09-15 17:05:00 92.5 21.2 47.1 92.5 92.5 2.1 6.9 4.5 131.5 162.4 0.00 0.1175124 80.7
2021-09-15 17:10:00 92.7 22.7 49.2 92.7 92.7 5.6 8.1 4.4 207.5 168.1 0.00 0.1127335 80.7
2021-09-15 17:15:00 91.8 24.1 50.0 91.8 91.8 4.2 9.0 5.8 202.5 182.4 0.00 0.1076857 80.8
2021-09-15 17:20:00 91.6 24.3 50.1 91.6 91.6 6.7 8.7 5.5 189.3 192.4 0.00 0.1026669 80.8
2021-09-15 17:25:00 91.6 23.4 49.0 91.6 91.6 3.5 7.8 5.8 202.6 195.2 0.00 0.0982728 80.8
2021-09-15 17:30:00 91.7 25.1 51.0 91.7 91.7 3.7 6.9 4.8 224.7 203.8 0.00 0.0933364 80.8
2021-09-15 17:35:00 91.8 23.9 49.7 91.8 91.8 4.0 7.1 4.8 197.0 193.1 0.00 0.0823633 80.8
2021-09-15 17:40:00 91.6 23.6 49.2 91.6 91.6 5.5 5.8 3.4 203.0 190.1 0.00 0.0440308 80.8
2021-09-15 17:45:00 90.7 22.0 46.7 90.7 90.7 4.0 4.7 3.6 165.6 162.2 0.00 0.0138495 80.8
2021-09-15 17:50:00 90.0 23.6 47.9 90.0 90.0 2.6 4.0 2.9 176.5 176.7 0.00 0.0126850 80.8
2021-09-15 17:55:00 89.6 24.9 49.0 89.6 89.6 1.5 3.1 2.2 206.7 203.2 0.00 0.0147094 80.8
2021-09-15 18:00:00 90.2 24.4 48.9 90.2 90.2 3.1 4.2 2.5 116.3 187.2 0.00 0.0517383 80.8
2021-09-15 18:05:00 90.2 24.8 49.4 90.2 90.2 0.8 6.0 2.9 228.2 186.5 0.00 0.0403011 80.7
2021-09-15 18:10:00 90.5 24.3 49.1 90.5 90.5 2.8 4.2 2.9 185.2 180.5 0.00 0.0288299 80.7
2021-09-15 18:15:00 89.7 25.2 49.4 89.7 89.7 3.0 4.0 2.4 211.7 164.1 0.00 0.0131961 80.7
2021-09-15 18:20:00 89.4 26.1 50.1 89.4 89.4 1.2 2.6 1.8 156.5 191.7 0.00 0.0132185 80.6
2021-09-15 18:25:00 89.0 26.5 50.2 89.0 89.0 1.9 3.5 2.0 218.1 195.3 0.00 0.0135637 80.6
2021-09-15 18:30:00 88.7 27.6 51.0 88.7 88.7 1.5 3.3 1.9 188.8 195.7 0.00 0.0135376 80.5
2021-09-15 18:35:00 87.8 28.7 51.4 87.8 87.8 1.5 2.2 1.3 213.0 197.7 0.00 0.0127648 80.5
2021-09-15 18:40:00 87.5 30.8 53.0 87.5 87.5 1.7 2.2 1.7 205.6 212.6 0.00 0.0103732 80.5
2021-09-15 18:45:00 87.0 29.9 51.8 87.0 87.0 3.0 3.0 1.9 190.6 174.6 0.00 0.0072343 80.4
2021-09-15 18:50:00 86.4 31.2 52.4 86.4 86.4 2.2 3.1 2.4 227.4 196.9 0.00 0.0047456 80.3
2021-09-15 18:55:00 85.8 33.0 53.3 85.8 85.8 2.1 3.8 2.6 219.0 205.6 0.00 0.0033226 80.3
2021-09-15 19:00:00 84.9 34.8 54.1 84.9 84.9 0.0 2.2 1.5 197.5 211.4 0.00 0.0025697 80.3
2021-09-15 19:05:00 84.5 35.1 54.0 84.5 84.5 2.2 2.6 0.6 169.4 176.0 0.00 0.0021419 80.2
2021-09-15 19:10:00 84.2 35.7 54.1 84.2 84.2 0.0 2.2 0.4 189.1 187.5 0.00 0.0017987 80.1
2021-09-15 19:15:00 83.9 35.6 53.8 83.9 83.9 0.0 0.0 0.0 185.1 0.0 0.00 0.0012375 80.1
2021-09-15 19:20:00 83.6 34.5 52.7 83.6 83.6 0.0 0.8 0.0 171.5 163.5 0.00 0.0006743 80.0
2021-09-15 19:25:00 83.7 36.0 53.9 83.7 83.7 1.2 1.5 0.8 210.7 193.7 0.00 0.0003372 79.9
2021-09-15 19:30:00 83.4 37.5 54.8 83.4 83.4 1.7 1.7 1.1 222.1 206.1 0.00 0.0001514 79.9
2021-09-15 19:35:00 82.4 38.4 54.6 82.4 82.4 1.3 2.1 1.7 221.1 220.8 0.00 0.0000586 79.8
2021-09-15 19:40:00 81.5 38.1 53.6 81.5 81.5 0.0 1.2 0.4 218.4 219.6 0.00 0.0000242 79.7
2021-09-15 19:45:00 84.2 29.7 49.1 84.2 84.2 6.9 7.2 3.7 47.0 48.7 0.00 0.0000202 79.6
2021-09-15 19:50:00 85.6 24.0 44.7 85.6 85.6 8.1 14.6 9.1 48.1 51.0 0.00 0.0000101 79.6
2021-09-15 19:55:00 85.6 24.1 44.9 85.6 85.6 6.5 10.6 7.0 50.7 44.2 0.00 0.0000000 79.5
2021-09-15 20:00:00 85.6 24.3 45.0 85.6 85.6 4.6 11.5 5.7 45.5 62.4 0.00 0.0000020 79.4
2021-09-15 20:05:00 85.4 24.9 45.5 85.4 85.4 4.9 7.2 5.7 71.8 61.6 0.00 0.0000000 79.4
2021-09-15 20:10:00 85.2 25.4 45.8 85.2 85.2 5.3 7.2 5.6 76.5 94.9 0.00 0.0000000 79.3
2021-09-15 20:15:00 85.0 25.4 45.6 85.0 85.0 5.1 7.4 5.3 89.4 110.7 0.00 0.0000000 79.2
2021-09-15 20:20:00 85.1 26.4 46.8 85.1 85.1 4.2 6.3 4.0 133.7 126.5 0.00 0.0000000 79.1
2021-09-15 20:25:00 85.1 28.6 48.8 85.1 85.1 3.1 5.6 4.2 127.8 121.4 0.00 0.0000000 79.1
2021-09-15 20:30:00 85.4 32.6 52.8 85.4 85.4 4.6 8.8 4.9 110.0 119.1 0.00 0.0000000 79.0
2021-09-15 20:35:00 85.6 34.0 54.0 85.6 85.6 8.7 9.4 6.5 178.6 127.9 0.00 0.0000000 78.9
2021-09-15 20:40:00 85.6 33.8 53.9 85.6 85.6 4.4 11.2 7.5 108.9 121.2 0.00 0.0000020 78.8
2021-09-15 20:45:00 85.2 34.2 53.8 85.2 85.2 4.7 11.2 6.0 143.1 124.6 0.00 0.0000000 78.7
2021-09-15 20:50:00 84.8 33.8 53.2 84.8 84.8 6.9 10.3 6.8 167.7 127.8 0.00 0.0000040 78.7
2021-09-15 20:55:00 84.7 34.5 53.6 84.7 84.7 2.6 8.0 4.4 157.4 136.8 0.00 0.0000000 78.6
2021-09-15 21:00:00 84.4 33.4 52.5 84.4 84.4 3.1 7.2 4.5 119.3 129.2 0.00 0.0000000 78.5
2021-09-15 21:05:00 84.0 33.7 52.4 84.0 84.0 1.7 4.6 2.5 128.2 136.4 0.00 0.0000000 78.5
2021-09-15 21:10:00 83.7 32.5 51.2 83.7 83.7 5.8 6.9 3.8 135.8 158.2 0.00 0.0000020 78.4
2021-09-15 21:15:00 83.9 31.8 50.7 83.9 83.9 4.0 7.2 4.1 103.4 127.9 0.00 0.0000020 78.3
2021-09-15 21:20:00 83.7 31.1 49.9 83.7 83.7 6.3 9.7 5.6 94.5 137.2 0.00 0.0000000 78.3
2021-09-15 21:25:00 83.7 31.1 50.0 83.7 83.7 4.4 9.6 6.8 101.1 123.3 0.00 0.0000040 78.2
2021-09-15 21:30:00 83.9 31.1 50.1 83.9 83.9 8.5 9.4 6.7 112.7 120.7 0.00 0.0000020 78.2
2021-09-15 21:35:00 83.4 31.3 49.9 83.4 83.4 4.9 10.5 5.8 116.5 117.8 0.00 0.0000000 78.0
2021-09-15 21:40:00 83.1 31.5 49.7 83.1 83.1 5.1 9.0 4.9 102.7 114.0 0.00 0.0000020 78.0
2021-09-15 21:45:00 82.7 32.3 50.1 82.7 82.7 1.9 5.8 3.3 117.8 112.6 0.00 0.0000000 77.9
2021-09-15 21:50:00 82.8 31.7 49.7 82.8 82.8 2.8 8.7 3.8 144.0 125.1 0.00 0.0000020 77.9
2021-09-15 21:55:00 83.4 31.0 49.6 83.4 83.4 3.3 9.7 6.2 99.5 109.2 0.00 0.0000061 77.8
2021-09-15 22:00:00 83.5 31.0 49.7 83.5 83.5 8.1 9.9 5.0 122.6 117.4 0.00 0.0000101 77.7
2021-09-15 22:05:00 83.5 30.8 49.5 83.5 83.5 5.1 9.7 6.8 120.7 119.8 0.00 0.0000061 77.7
2021-09-15 22:10:00 83.2 30.1 48.7 83.2 83.2 4.0 6.3 4.3 115.5 127.6 0.00 0.0000061 77.6
2021-09-15 22:15:00 83.5 30.3 49.1 83.5 83.5 1.0 4.2 1.8 251.6 149.5 0.00 0.0000061 77.5
2021-09-15 22:20:00 82.0 33.5 50.5 82.0 82.0 4.0 4.2 2.8 260.1 265.7 0.00 0.0000101 77.5
2021-09-15 22:25:00 80.6 37.0 51.9 80.6 80.6 4.0 4.6 3.8 244.1 250.6 0.00 0.0000162 77.4
2021-09-15 22:30:00 79.4 38.9 52.3 79.4 79.4 1.9 4.6 3.1 251.0 252.8 0.00 0.0000263 77.3
2021-09-15 22:35:00 79.1 39.3 52.2 79.1 79.1 0.0 2.2 0.8 230.4 280.5 0.00 0.0000242 77.3
2021-09-15 22:40:00 78.9 40.1 52.5 78.9 78.9 0.0 3.3 1.5 201.4 243.7 0.00 0.0000263 77.2
2021-09-15 22:45:00 78.6 45.1 55.5 78.6 78.6 4.7 4.7 2.0 208.5 188.7 0.00 0.0000222 77.1
2021-09-15 22:50:00 76.7 51.0 57.2 76.7 76.7 4.6 7.4 5.1 240.1 206.5 0.00 0.0000363 77.1
2021-09-15 22:55:00 75.8 48.9 55.2 75.8 75.8 4.7 7.1 5.6 203.3 225.0 0.00 0.0000323 77.0
2021-09-15 23:00:00 75.6 45.7 53.2 75.6 75.6 3.8 6.3 4.7 182.3 208.4 0.00 0.0000061 77.0
2021-09-15 23:05:00 75.4 46.4 53.4 75.4 75.4 5.1 6.5 5.1 190.1 200.9 0.00 0.0000000 76.9
2021-09-15 23:10:00 73.5 51.6 54.6 73.5 73.5 3.1 5.8 4.6 226.0 228.4 0.00 0.0000000 76.9
2021-09-15 23:15:00 73.2 52.1 54.6 73.2 73.2 4.7 5.5 3.7 338.9 306.4 0.00 0.0000000 76.8
2021-09-15 23:20:00 74.6 43.9 51.2 74.6 74.6 2.6 8.0 5.3 75.9 355.5 0.00 0.0000000 76.8
2021-09-15 23:25:00 75.7 47.3 54.2 75.7 75.7 3.0 4.2 2.9 229.7 168.2 0.00 0.0000000 76.7
2021-09-15 23:30:00 74.5 46.2 52.5 74.5 74.5 1.3 3.3 2.4 237.3 260.9 0.00 0.0000000 76.7
2021-09-15 23:35:00 74.1 48.9 53.7 74.1 74.1 3.7 4.4 3.3 201.0 211.8 0.00 0.0000000 76.6
2021-09-15 23:40:00 74.2 45.9 52.1 74.2 74.2 3.7 5.3 3.7 204.0 199.7 0.00 0.0000000 76.6
2021-09-15 23:45:00 74.1 44.4 51.1 74.1 74.1 5.3 5.5 4.1 216.5 200.1 0.00 0.0000000 76.5
2021-09-15 23:50:00 73.9 45.7 51.7 73.9 73.9 5.5 6.7 5.5 224.1 210.9 0.00 0.0000000 76.5
2021-09-15 23:55:00 73.7 45.2 51.1 73.7 73.7 4.7 7.6 5.8 217.5 213.0 0.00 0.0000000 76.4
2021-09-16 00:00:00 73.5 44.4 50.5 73.5 73.5 5.5 7.8 6.1 204.6 213.6 0.00 0.0000000 76.4

Data is courtesy of the NM Climate Center. DO NOT USE IN LEGAL PROCEEDINGS.